Flight Track Log - Related Links

Times and Time Zones

All times are in EDT time to prevent confusion due to time zone crossing. See the SKW2986 flight status page for this flight to view local times or setup timezone preferences in your user account.

Time Position Orientation Groundspeed Altitude Reporting Facility
EDT Latitude Longitude Course Direction KTS MPH feet Rate Location/Type
Fri 08:17:04 PM 33.4333 -112.0333 287° West 161 185 1,800  Level Phoenix TRACON
Fri 08:19:34 PM 33.4786 -112.2153 27° Northeast 234 269 6,600 2,086 Climbing Albuquerque Center
Fri 08:20:34 PM 33.5536 -112.1697 42° Northeast 195 224 9,100 2,050 Climbing Albuquerque Center
Fri 08:21:34 PM 33.6211 -112.0964 42° Northeast 228 262 10,700 1,650 Climbing Albuquerque Center
Fri 08:22:34 PM 33.6931 -112.0181 40° Northeast 301 346 12,400 1,600 Climbing Albuquerque Center
Fri 08:23:34 PM 33.7733 -111.9378 40° Northeast 348 400 13,900 1,350 Climbing Albuquerque Center
Fri 08:24:34 PM 33.8536 -111.8569 42° Northeast 368 423 15,100 1,250 Climbing Albuquerque Center
Fri 08:25:34 PM 33.9383 -111.7664 38° Northeast 379 436 16,400 1,150 Climbing Albuquerque Center
Fri 08:26:34 PM 34.0250 -111.6833 23° Northeast 385 443 17,400 1,050 Climbing Albuquerque Center
Fri 08:27:34 PM 34.1311 -111.6286 25° Northeast 398 458 18,500 1,000 Climbing Albuquerque Center
Fri 08:28:34 PM 34.2247 -111.5758 23° Northeast 409 471 19,400 800 Climbing Albuquerque Center
Fri 08:29:34 PM 34.3353 -111.5186 24° Northeast 416 479 20,100 800 Climbing Albuquerque Center
Fri 08:30:34 PM 34.4458 -111.4586 25° Northeast 427 491 21,000 950 Climbing Albuquerque Center
Fri 08:31:34 PM 34.5586 -111.3936 22° Northeast 432 497 22,000 900 Climbing Albuquerque Center
Fri 08:32:34 PM 34.6775 -111.3364 25° Northeast 442 509 22,800 850 Climbing Albuquerque Center
Fri 08:33:34 PM 34.7944 -111.2714 23° Northeast 447 514 23,700 800 Climbing Albuquerque Center
Fri 08:34:34 PM 34.9133 -111.2086 24° Northeast 447 514 24,400 800 Climbing Albuquerque Center
Fri 08:35:34 PM 35.0344 -111.1433 27° Northeast 453 521 25,300 850 Climbing Albuquerque Center
Fri 08:36:34 PM 35.1664 -111.0606 25° Northeast 467 537 26,100 700 Climbing Albuquerque Center
Fri 08:37:34 PM 35.2853 -110.9922 23° Northeast 472 543 26,700 563 Climbing Albuquerque Center
Fri 08:39:14 PM 35.4764 -110.8914 24° Northeast 464 534 27,600 525 Climbing Denver Center
Fri 08:40:14 PM 35.6000 -110.8222 25° Northeast 472 543 28,100 550 Climbing Denver Center
Fri 08:41:14 PM 35.7236 -110.7503 24° Northeast 485 558 28,700 450 Climbing Denver Center
Fri 08:42:14 PM 35.8639 -110.6739 25° Northeast 485 558 29,000 150 Climbing Denver Center
Fri 08:43:14 PM 35.9894 -110.6014 24° Northeast 490 564 29,000  Level Denver Center
Fri 08:44:14 PM 36.1211 -110.5292 25° Northeast 497 572 29,000  Level Denver Center
Fri 08:45:14 PM 36.2531 -110.4514 24° Northeast 504 580 29,000  Level Denver Center
Fri 08:46:14 PM 36.3828 -110.3786 24° Northeast 509 586 29,000  Level Denver Center
Fri 08:47:14 PM 36.5144 -110.3056 25° Northeast 509 586 29,000  Level Denver Center
Fri 08:48:14 PM 36.6400 -110.2319 24° Northeast 509 586 29,000  Level Denver Center
Fri 08:49:14 PM 36.7589 -110.1653 23° Northeast 509 586 29,000  Level Denver Center
Fri 08:50:14 PM 36.9031 -110.0897 26° Northeast 509 586 29,000  Level Denver Center
Fri 08:51:14 PM 37.0197 -110.0175 24° Northeast 509 586 29,000  Level Denver Center
Fri 08:52:14 PM 37.1619 -109.9383 25° Northeast 509 586 29,000  Level Denver Center
Fri 08:53:14 PM 37.2936 -109.8614 25° Northeast 509 586 29,000  Level Denver Center
Fri 08:54:14 PM 37.4250 -109.7839 25° Northeast 509 586 29,000  Level Denver Center
Fri 08:55:14 PM 37.5394 -109.7158 25° Northeast 510 587 29,000  Level Denver Center
Fri 08:56:14 PM 37.6817 -109.6331 25° Northeast 510 587 29,000 -100 Level Denver Center
Fri 08:57:14 PM 37.8086 -109.5572 26° Northeast 510 587 28,800 -800 Descending Denver Center
Fri 08:58:14 PM 37.9339 -109.4811 28° Northeast 510 587 27,400 -1,000 Descending Denver Center
Fri 08:59:14 PM 38.0569 -109.3992 25° Northeast 505 581 26,800 -1,050 Descending Denver Center
Fri 09:00:14 PM 38.1861 -109.3228 26° Northeast 498 573 25,300 -1,450 Descending Denver Center
Fri 09:01:14 PM 38.2961 -109.2558 25° Northeast 493 567 23,900 -1,450 Descending Denver Center
Fri 09:02:14 PM 38.4186 -109.1836 25° Northeast 482 555 22,400 -1,550 Descending Denver Center
Fri 09:03:14 PM 38.5497 -109.1039 26° Northeast 471 542 20,800 -1,550 Descending Denver Center
Fri 09:04:14 PM 38.6642 -109.0336 42° Northeast 465 535 19,300 -1,550 Descending Denver Center
Fri 09:05:14 PM 38.7433 -108.9408 48° Northeast 435 501 17,700 -1,950 Descending Denver Center
Fri 09:06:14 PM 38.8206 -108.8289 48° Northeast 387 445 15,400 -2,200 Descending Denver Center
Fri 09:07:14 PM 38.8872 -108.7350 56° Northeast 365 420 13,300 -1,800 Descending Denver Center
Fri 09:08:14 PM 38.9369 -108.6406 68° East 336 387 11,800 -1,500 Descending Denver Center
Fri 09:09:14 PM 38.9614 -108.5639 62° Northeast 276 318 10,300 -1,700 Descending Denver Center
Fri 09:10:14 PM 38.9942 -108.4847 35° Northeast 233 268 8,400 -1,400 Descending Denver Center
Fri 09:11:14 PM 39.0344 -108.4486 356° North 207 238 7,500 -1,150 Descending Denver Center
Fri 09:12:14 PM 39.0803 -108.4525 308° West 163 188 6,100 -1,150 Descending Denver Center
Fri 09:13:14 PM 39.1064 -108.4961 309° West 144 166 5,200 -650 Descending Denver Center
Fri 09:14:14 PM 39.1289 -108.5314 309° West 150 173 4,800 -400 Descending Denver Center

Login

Don't have an account? Register now (free) for customized features, flight alerts, and more!